Aviation Digital Data Service (ADDS)

Output produced by METARs form (2057 UTC 29 May 2017)
found at http://www.aviationweather.gov/adds/metars/
 
EHKD 292055Z AUTO 04005KT 010V070 9999 SCT087 OVC093 18/16 Q1011 BLU 05005KT 9999 FEW060 SCT100 OVC150
TAF EHKD 291656Z 2917/3005 05012KT CAVOK 
     BECMG 2922/2924 24008KT 
     TEMPO 2923/3003 VRB10G20KT 2000 TSRAGR SCT020 BKN040CB 
     PROB40 
     TEMPO 3004/3005 BKN005
       
EHDL 292055Z AUTO 29004KT 9999 SCT120 22/18 Q1011 BLU
EHGG 292025Z AUTO 06005KT 9999 NSC 17/16 Q1011 NOSIG
TAF EHGG 291727Z 2918/3024 04007KT CAVOK 
     BECMG 2923/3002 4000 BR 
     PROB30 
     TEMPO 3001/3005 22015G25KT 2000 TSRAGR SCT020 BKN060CB 
     BECMG 3006/3009 24012G22KT 9999 NSW 
     BECMG 3018/3021 24008KT
       
EHEH 292030Z AUTO 26008KT 220V290 9999 FEW067 BKN075 BKN170 23/17 Q1011 BLU 30007KT CAVOK TEMPO VRB10G20KT 4000 SHRA TSRA SCT040CB
TAF COR EHEH 291744Z 2918/3024 29008KT CAVOK 
     TEMPO 2918/3001 30010G20KT 4000 SHRA TSRA SCT040CB 
     PROB40 
     TEMPO 2918/3001 30015G30KT 2000 SHRAGR TSRAGR SCT020 BKN040CB 
     BECMG 3005/3007 SCT012 BKN015 
     TEMPO 3006/3010 SCT005 BKN008 
     BECMG 3009/3011 26012KT BKN020
       
EHGR 292055Z AUTO 26006KT 9999 TS FEW021CB OVC130 22/17 Q1012 BLU
TAF AMD EHGR 290810Z 2909/2921 10007KT CAVOK 
     BECMG 2909/2912 19008KT 
     BECMG 2912/2915 29008KT 
     PROB30 2914/2916 3000 TSRAGR SCT050CB 
     PROB40 
     TEMPO 2916/2921 28015G30KT 2000 SHRA TSRAGR SCT030 BKN040CB
       
EHLW 292055Z AUTO 04005KT 010V070 9999 FEW015CB OVC100 15/15 Q1011 BLU
TAF EHLW 291657Z 2917/3005 05012KT CAVOK 
     TEMPO 2923/3003 VRB10G20KT 2000 TSRAGR SCT020 BKN040CB
       
EHBK 292025Z AUTO 31004KT 260V350 9999 NSC 24/18 Q1012 NOSIG
TAF EHBK 291724Z 2918/3024 27005KT CAVOK 
     PROB30 
     TEMPO 2918/3001 22015G30KT 2000 TSRAGR SCT020 BKN060CB 
     PROB30 
     TEMPO 3011/3014 27010G20KT 4000 SHRA RA SCT020CB BKN030
       
EHRD 292025Z AUTO 28006KT 240V320 9000 NSC 19/16 Q1012 NOSIG
TAF EHRD 291703Z 2918/3024 25007KT CAVOK 
     PROB40 
     TEMPO 2919/3002 26015G25KT 4000 SHRA TSRAGR SCT050CB 
     BECMG 3001/3004 5000 BR BKN006 
     PROB30 3003/3008 2500 BKN004 
     BECMG 3009/3012 25014KT 9999 NSW BKN014 
     BECMG 3012/3015 SCT018 
     BECMG 3017/3020 24008KT
       
EHAM 292025Z 28007KT 9000 NSC 19/16 Q1011 NOSIG
TAF EHAM 291702Z 2918/3024 25007KT CAVOK 
     PROB40 
     TEMPO 2920/3003 26015G25KT 4000 SHRA TSRAGR SCT050CB 
     BECMG 3001/3004 5000 BR BKN006 
     PROB30 3003/3008 2500 BKN004 
     BECMG 3009/3012 25014KT 9999 NSW BKN014 
     BECMG 3012/3015 SCT018 
     BECMG 3017/3020 24008KT
       
EHVK 292055Z AUTO 28003KT 220V290 9999 FEW069 SCT100 BKN170 23/17 Q1011 BLU
TAF AMD EHVK 290813Z 2909/2921 08007KT CAVOK 
     BECMG 2910/2913 18007KT 
     BECMG 2913/2916 29007KT 
     PROB30 2914/2916 3000 TSRAGR SCT050CB 
     PROB40 
     TEMPO 2916/2921 30015G30KT 2000 SHRA TSRAGR SCT030 BKN040CB
       
EHWO 292055Z AUTO 25009KT 9999 -TSRA FEW016CB SCT066 BKN083 20/16 Q1012 BLU
TAF AMD EHWO 290807Z 2909/2921 10010KT CAVOK 
     BECMG 2909/2912 18007KT 
     BECMG 2913/2916 27005KT 
     PROB30 2914/2916 3000 TSRAGR SCT050CB 
     PROB40 
     TEMPO 2916/2921 28015G30KT 2000 SHRA TSRAGR SCT025 BKN040CB